createdAt,value
2023-03-29T00:00:12.546Z,0.98
2023-03-29T00:02:40.897Z,0.80
2023-03-29T00:05:12.264Z,0.60
2023-03-29T00:07:41.177Z,0.70
2023-03-29T00:10:12.763Z,0.90
2023-03-29T00:12:42.125Z,0.90
2023-03-29T00:15:10.956Z,0.82
2023-03-29T00:17:38.912Z,0.95
2023-03-29T00:20:10.231Z,0.60
2023-03-29T00:22:39.775Z,0.70
2023-03-29T00:25:08.391Z,0.70
2023-03-29T00:27:38.239Z,0.80
2023-03-29T00:30:10.041Z,0.60
2023-03-29T00:32:39.181Z,0.75
2023-03-29T00:35:07.969Z,0.50
2023-03-29T00:37:36.806Z,0.70
2023-03-29T00:40:08.263Z,0.50
2023-03-29T00:42:38.439Z,0.63
2023-03-29T00:45:18.769Z,0.60
2023-03-29T00:47:51.603Z,0.50
2023-03-29T00:50:25.757Z,0.73
2023-03-29T00:53:00.857Z,0.90
2023-03-29T00:55:34.794Z,0.65
2023-03-29T00:58:07.353Z,0.77
2023-03-29T01:00:41.826Z,0.73
2023-03-29T01:03:15.250Z,1.00
2023-03-29T01:05:49.864Z,0.88
2023-03-29T01:08:25.635Z,0.93
2023-03-29T01:11:01.813Z,0.60
2023-03-29T01:13:42.260Z,0.80
2023-03-29T01:16:13.234Z,0.75
2023-03-29T01:18:41.905Z,0.80
2023-03-29T01:21:23.451Z,0.73
2023-03-29T01:24:11.075Z,0.70
2023-03-29T01:26:55.182Z,0.65
2023-03-29T01:29:33.080Z,0.63
2023-03-29T01:32:09.709Z,0.70
2023-03-29T01:34:45.931Z,0.50
2023-03-29T01:37:21.900Z,0.88
2023-03-29T01:39:49.876Z,0.70
2023-03-29T01:42:35.945Z,0.75
2023-03-29T01:45:20.597Z,0.70
2023-03-29T01:48:00.505Z,0.55
2023-03-29T01:50:42.268Z,0.65
2023-03-29T01:53:18.192Z,0.68
2023-03-29T01:55:52.393Z,0.50
2023-03-29T01:58:27.040Z,0.43
2023-03-29T02:00:56.786Z,0.70
2023-03-29T02:03:30.858Z,0.70
2023-03-29T02:06:02.046Z,0.55
2023-03-29T02:08:31.538Z,0.80
2023-03-29T02:10:59.816Z,0.75
2023-03-29T02:13:28.079Z,0.77
2023-03-29T02:15:59.671Z,0.60
2023-03-29T02:18:27.692Z,0.73
2023-03-29T02:20:58.904Z,0.90
2023-03-29T02:23:34.925Z,0.60
2023-03-29T02:26:06.589Z,0.65
2023-03-29T02:28:34.742Z,0.88
2023-03-29T02:31:13.116Z,0.70
2023-03-29T02:33:53.115Z,0.75
2023-03-29T02:36:29.393Z,0.80
2023-03-29T02:39:01.045Z,0.70
2023-03-29T02:41:29.931Z,0.80
2023-03-29T02:44:00.903Z,0.93
2023-03-29T02:46:30.763Z,0.90
2023-03-29T02:49:00.872Z,0.80
2023-03-29T02:51:34.308Z,0.70
2023-03-29T02:54:09.261Z,0.75
2023-03-29T02:56:44.781Z,0.70
2023-03-29T02:59:14.327Z,0.70
2023-03-29T03:04:13.203Z,0.80
2023-03-29T03:06:42.134Z,0.85
2023-03-29T03:09:10.427Z,0.73
2023-03-29T03:11:38.392Z,0.98
2023-03-29T03:14:07.494Z,0.90
2023-03-29T03:16:36.078Z,0.75
2023-03-29T03:19:06.008Z,0.90
2023-03-29T03:21:35.099Z,0.73
2023-03-29T03:24:03.068Z,0.90
2023-03-29T03:26:30.993Z,0.70
2023-03-29T03:28:59.016Z,0.70
2023-03-29T03:31:28.266Z,0.93
2023-03-29T03:33:56.629Z,0.75
2023-03-29T03:36:26.387Z,0.82
2023-03-29T03:38:54.381Z,0.70
2023-03-29T03:41:22.684Z,0.60
2023-03-29T03:43:50.647Z,0.80
2023-03-29T03:46:19.305Z,0.80
2023-03-29T03:48:47.968Z,0.70
2023-03-29T03:51:15.940Z,0.83
2023-03-29T03:53:45.740Z,0.77
2023-03-29T03:56:14.081Z,0.88
2023-03-29T03:58:42.245Z,0.82
2023-03-29T04:01:10.312Z,0.70
2023-03-29T04:03:39.188Z,0.65
2023-03-29T04:06:07.727Z,0.60
2023-03-29T04:08:35.681Z,0.80
2023-03-29T04:11:05.410Z,0.80
2023-03-29T04:13:33.259Z,0.70
2023-03-29T04:16:01.851Z,0.90
2023-03-29T04:18:30.035Z,0.63
2023-03-29T04:20:58.201Z,0.90
2023-03-29T04:23:26.268Z,0.77
2023-03-29T04:25:56.587Z,0.70
2023-03-29T04:28:25.881Z,0.90
2023-03-29T04:30:53.844Z,1.02
2023-03-29T04:33:22.519Z,0.80
2023-03-29T04:35:50.679Z,0.77
2023-03-29T04:38:23.032Z,0.90
2023-03-29T04:40:53.726Z,0.90
2023-03-29T04:43:22.539Z,0.85
2023-03-29T04:45:51.822Z,0.77
2023-03-29T04:48:19.737Z,0.77
2023-03-29T04:50:48.372Z,0.77
2023-03-29T04:53:20.002Z,0.50
2023-03-29T04:55:48.311Z,0.90
2023-03-29T04:58:16.471Z,0.68
2023-03-29T05:00:45.386Z,0.80
2023-03-29T05:03:15.276Z,0.80
2023-03-29T05:05:43.181Z,0.80
2023-03-29T05:08:12.202Z,0.80
2023-03-29T05:10:44.396Z,0.80
2023-03-29T05:13:15.292Z,0.73
2023-03-29T05:15:43.993Z,1.02
2023-03-29T05:18:12.000Z,0.63
2023-03-29T05:20:42.168Z,0.80
2023-03-29T05:23:10.475Z,0.80
2023-03-29T05:25:50.244Z,0.70
2023-03-29T05:28:20.945Z,0.60
2023-03-29T05:30:49.497Z,0.73
2023-03-29T05:33:17.585Z,0.70
2023-03-29T05:35:48.027Z,0.75
2023-03-29T05:38:16.104Z,0.80
2023-03-29T05:40:44.522Z,0.68
2023-03-29T05:43:13.189Z,0.68
2023-03-29T05:45:41.469Z,0.65
2023-03-29T05:48:11.618Z,0.70
2023-03-29T05:50:39.648Z,0.88
2023-03-29T05:53:09.484Z,0.77
2023-03-29T05:55:37.462Z,0.70
2023-03-29T05:58:05.412Z,0.60
2023-03-29T06:00:38.021Z,0.73
2023-03-29T06:03:17.988Z,0.77
2023-03-29T06:05:56.681Z,0.80
2023-03-29T06:08:28.640Z,0.80
2023-03-29T06:11:04.511Z,0.90
2023-03-29T06:13:34.744Z,0.70
2023-03-29T06:18:32.360Z,0.70
2023-03-29T06:21:02.275Z,0.77
2023-03-29T06:23:32.182Z,0.60
2023-03-29T06:26:03.379Z,0.60
2023-03-29T06:28:31.800Z,0.80
2023-03-29T06:31:03.890Z,0.60
2023-03-29T06:33:34.186Z,0.77
2023-03-29T06:38:34.045Z,0.60
2023-03-29T06:41:04.624Z,0.50
2023-03-29T06:43:38.279Z,0.70
2023-03-29T06:46:11.607Z,0.68
2023-03-29T06:48:41.183Z,0.60
2023-03-29T06:51:09.916Z,0.50
2023-03-29T06:53:39.290Z,0.75
2023-03-29T06:56:09.337Z,0.70
2023-03-29T06:58:37.911Z,0.60
2023-03-29T07:01:07.127Z,0.52
2023-03-29T07:03:38.625Z,0.60
2023-03-29T07:06:11.879Z,0.50
2023-03-29T07:08:49.819Z,0.60
2023-03-29T07:11:18.837Z,0.40
2023-03-29T07:13:51.009Z,0.65
2023-03-29T07:16:22.559Z,0.60
2023-03-29T07:18:53.412Z,0.60
2023-03-29T07:21:21.469Z,0.40
2023-03-29T07:23:53.350Z,0.60
2023-03-29T07:26:28.669Z,0.60
2023-03-29T07:28:58.785Z,0.50
2023-03-29T07:31:29.342Z,0.60
2023-03-29T07:33:57.572Z,0.40
2023-03-29T07:36:28.536Z,0.70
2023-03-29T07:39:01.825Z,0.38
2023-03-29T07:41:29.942Z,0.57
2023-03-29T07:43:58.889Z,0.50
2023-03-29T07:46:27.102Z,0.52
2023-03-29T07:48:56.684Z,0.50
2023-03-29T07:51:26.912Z,0.57
2023-03-29T07:53:55.080Z,0.60
2023-03-29T07:56:24.770Z,0.40
2023-03-29T08:01:22.914Z,0.60
2023-03-29T08:03:50.942Z,0.63
2023-03-29T08:06:19.182Z,0.70
2023-03-29T08:08:48.440Z,0.43
2023-03-29T08:11:16.394Z,0.50
2023-03-29T08:13:46.282Z,0.50
2023-03-29T08:16:14.678Z,0.40
2023-03-29T08:18:42.755Z,0.60
2023-03-29T08:21:11.093Z,0.50
2023-03-29T08:23:39.186Z,0.50
2023-03-29T08:26:08.672Z,0.57
2023-03-29T08:28:38.116Z,0.68
2023-03-29T08:31:11.218Z,0.57
2023-03-29T08:33:39.436Z,0.68
2023-03-29T08:36:08.433Z,0.70
2023-03-29T08:38:39.444Z,0.60
2023-03-29T08:41:39.910Z,0.70
2023-03-29T08:44:28.080Z,0.50
2023-03-29T08:47:10.069Z,0.60
2023-03-29T08:49:43.930Z,0.70
2023-03-29T08:52:23.839Z,0.50
2023-03-29T08:54:57.172Z,0.45
2023-03-29T08:57:32.979Z,0.50
2023-03-29T09:00:06.896Z,0.40
2023-03-29T09:02:37.433Z,0.80
2023-03-29T09:05:20.405Z,0.60
2023-03-29T09:07:48.737Z,0.40
2023-03-29T09:10:19.366Z,0.60
2023-03-29T09:13:17.651Z,0.50
2023-03-29T09:15:56.801Z,0.63
2023-03-29T09:18:39.928Z,0.40
2023-03-29T09:21:21.496Z,0.50
2023-03-29T09:24:30.623Z,0.63
2023-03-29T09:27:10.073Z,0.63
2023-03-29T09:30:04.619Z,0.60
2023-03-29T09:32:42.333Z,0.43
2023-03-29T09:35:22.754Z,0.60
2023-03-29T09:37:54.896Z,0.50
2023-03-29T09:40:29.595Z,0.70
2023-03-29T09:42:59.238Z,0.50
2023-03-29T09:45:30.638Z,0.50
2023-03-29T09:48:12.525Z,0.50
2023-03-29T09:50:51.196Z,0.40
2023-03-29T09:53:30.468Z,0.40
2023-03-29T09:55:58.899Z,0.40
2023-03-29T09:58:32.810Z,0.50
2023-03-29T10:01:08.733Z,0.40
2023-03-29T10:03:41.376Z,0.45
2023-03-29T10:06:15.689Z,0.40
2023-03-29T10:08:51.367Z,0.52
2023-03-29T10:11:24.660Z,0.50
2023-03-29T10:13:57.432Z,0.68
2023-03-29T10:16:31.234Z,0.40
2023-03-29T10:18:59.969Z,0.50
2023-03-29T10:21:32.414Z,0.50
2023-03-29T10:24:00.412Z,0.50
2023-03-29T10:26:33.816Z,0.40
2023-03-29T10:29:08.344Z,0.40
2023-03-29T10:31:41.491Z,0.40
2023-03-29T10:34:16.468Z,0.50
2023-03-29T10:36:54.174Z,0.50
2023-03-29T10:39:34.310Z,0.40
2023-03-29T10:42:05.572Z,0.50
2023-03-29T10:44:38.744Z,0.43
2023-03-29T10:47:20.232Z,0.40
2023-03-29T10:49:56.944Z,0.50
2023-03-29T10:52:31.706Z,0.50
2023-03-29T10:55:02.684Z,0.52
2023-03-29T10:57:51.148Z,0.40
2023-03-29T11:00:33.272Z,0.50
2023-03-29T11:03:25.003Z,0.40
2023-03-29T11:06:03.041Z,0.40
2023-03-29T11:08:52.544Z,0.40
2023-03-29T11:12:12.168Z,0.40
2023-03-29T11:15:01.551Z,0.40
2023-03-29T11:17:52.700Z,0.40
2023-03-29T11:20:31.115Z,0.30
2023-03-29T11:23:15.034Z,0.35
2023-03-29T11:26:04.015Z,0.40
2023-03-29T11:28:43.354Z,0.40
2023-03-29T11:31:24.875Z,0.30
2023-03-29T11:34:14.267Z,0.50
2023-03-29T11:36:55.078Z,0.40
2023-03-29T11:39:39.426Z,0.40
2023-03-29T11:42:18.150Z,0.50
2023-03-29T11:44:54.630Z,0.30
2023-03-29T11:47:28.997Z,0.50
2023-03-29T11:50:04.782Z,0.40
2023-03-29T11:52:40.729Z,0.43
2023-03-29T11:55:18.081Z,0.40
2023-03-29T11:57:56.617Z,0.40
2023-03-29T12:00:30.407Z,0.30
2023-03-29T12:03:08.259Z,0.32
2023-03-29T12:05:44.267Z,0.38
2023-03-29T12:08:21.203Z,0.50
2023-03-29T12:10:58.353Z,0.30
2023-03-29T12:13:34.263Z,0.40
2023-03-29T12:16:12.446Z,0.40
2023-03-29T12:18:45.398Z,0.40
2023-03-29T12:21:45.809Z,0.30
2023-03-29T12:24:20.615Z,0.30
2023-03-29T12:27:26.125Z,0.40
2023-03-29T12:30:54.132Z,0.40
2023-03-29T12:34:37.521Z,0.35
2023-03-29T12:37:43.845Z,0.32
2023-03-29T12:40:17.946Z,0.40
2023-03-29T12:42:57.630Z,0.40
2023-03-29T12:46:28.917Z,0.38
2023-03-29T12:49:13.386Z,0.30
2023-03-29T12:51:56.345Z,0.30
2023-03-29T12:54:49.910Z,0.40
2023-03-29T12:57:56.359Z,0.30
2023-03-29T13:01:25.306Z,0.30
2023-03-29T13:04:18.950Z,0.25
2023-03-29T13:07:05.997Z,0.40
2023-03-29T13:10:28.102Z,0.30
2023-03-29T13:12:57.863Z,0.20
2023-03-29T13:18:20.177Z,0.40
2023-03-29T13:21:02.843Z,0.30
2023-03-29T13:23:45.876Z,0.30
2023-03-29T13:27:05.832Z,0.30
2023-03-29T13:34:01.377Z,0.30
2023-03-29T13:40:05.871Z,0.30
2023-03-29T13:42:50.259Z,0.30
2023-03-29T13:45:30.864Z,0.30
2023-03-29T13:48:30.711Z,0.30
2023-03-29T13:51:27.640Z,0.38
2023-03-29T13:54:03.015Z,0.30
2023-03-29T13:56:54.470Z,0.30
2023-03-29T13:59:45.901Z,0.40
2023-03-29T14:02:37.233Z,0.40
2023-03-29T14:05:14.354Z,0.40
2023-03-29T14:07:50.131Z,0.30
2023-03-29T14:10:31.274Z,0.40
2023-03-29T14:13:06.512Z,0.30
2023-03-29T14:15:58.493Z,0.40
2023-03-29T14:18:32.960Z,0.40
2023-03-29T14:21:02.868Z,0.30
2023-03-29T14:23:43.639Z,0.45
2023-03-29T14:26:27.421Z,0.30
2023-03-29T14:29:27.106Z,0.40
2023-03-29T14:32:07.908Z,0.30
2023-03-29T14:34:36.166Z,0.30
2023-03-29T14:37:05.612Z,0.40
2023-03-29T14:39:36.804Z,0.50
2023-03-29T14:42:14.452Z,0.45
2023-03-29T14:44:44.366Z,0.40
2023-03-29T14:47:22.094Z,0.47
2023-03-29T14:49:51.341Z,0.43
2023-03-29T14:52:21.052Z,0.40
2023-03-29T14:57:37.851Z,0.50
2023-03-29T15:00:27.872Z,0.50
2023-03-29T15:02:58.794Z,0.40
2023-03-29T15:05:38.610Z,0.40
2023-03-29T15:10:43.002Z,0.40
2023-03-29T15:13:28.525Z,0.30
2023-03-29T15:16:04.388Z,0.40
2023-03-29T15:18:41.719Z,0.47
2023-03-29T15:21:13.919Z,0.30
2023-03-29T15:23:51.882Z,0.50
2023-03-29T15:26:26.292Z,0.30
2023-03-29T15:29:03.835Z,0.30
2023-03-29T15:31:36.831Z,0.40
2023-03-29T15:34:09.250Z,0.40
2023-03-29T15:36:43.174Z,0.50
2023-03-29T15:39:14.322Z,0.38
2023-03-29T15:41:45.019Z,0.30
2023-03-29T15:44:17.252Z,0.38
2023-03-29T15:46:45.433Z,0.40
2023-03-29T15:49:14.208Z,0.40
2023-03-29T15:51:42.731Z,0.40
2023-03-29T15:54:10.908Z,0.40
2023-03-29T15:56:52.285Z,0.40
2023-03-29T15:59:20.489Z,0.40
2023-03-29T16:01:49.592Z,0.40
2023-03-29T16:04:22.002Z,0.50
2023-03-29T16:06:53.541Z,0.30
2023-03-29T16:09:23.929Z,0.25
2023-03-29T16:11:55.737Z,0.32
2023-03-29T16:14:28.185Z,0.30
2023-03-29T16:16:59.348Z,0.45
2023-03-29T16:19:29.973Z,0.30
2023-03-29T16:22:01.392Z,0.40
2023-03-29T16:24:34.459Z,0.30
2023-03-29T16:27:05.395Z,0.32
2023-03-29T16:29:33.464Z,0.30
2023-03-29T16:32:05.501Z,0.30
2023-03-29T16:34:35.867Z,0.30
2023-03-29T16:49:48.555Z,0.30
2023-03-29T16:52:17.598Z,0.40
2023-03-29T16:54:47.365Z,0.30
2023-03-29T16:59:47.660Z,0.40
2023-03-29T17:02:15.849Z,0.30
2023-03-29T17:04:46.424Z,0.30
2023-03-29T17:07:15.710Z,0.40
2023-03-29T17:09:46.354Z,0.40
2023-03-29T17:12:15.298Z,0.40
2023-03-29T17:14:47.777Z,0.30
2023-03-29T17:17:16.281Z,0.20
2023-03-29T17:19:49.004Z,0.40
2023-03-29T17:22:17.054Z,0.38
2023-03-29T17:24:45.031Z,0.45
2023-03-29T17:27:12.949Z,0.30
2023-03-29T17:29:40.875Z,0.32
2023-03-29T17:32:08.861Z,0.40
2023-03-29T17:34:37.263Z,0.30
2023-03-29T17:37:06.717Z,0.30
2023-03-29T17:39:37.492Z,0.40
2023-03-29T17:42:06.461Z,0.40
2023-03-29T17:44:34.487Z,0.40
2023-03-29T17:47:02.857Z,0.40
2023-03-29T17:49:31.786Z,0.40
2023-03-29T17:52:00.418Z,0.30
2023-03-29T17:54:32.111Z,0.50
2023-03-29T17:57:01.603Z,0.30
2023-03-29T17:59:30.962Z,0.30
2023-03-29T18:02:02.458Z,0.40
2023-03-29T18:04:30.580Z,0.40
2023-03-29T18:07:00.267Z,0.40
2023-03-29T18:12:00.349Z,0.40
2023-03-29T18:14:29.024Z,0.30
2023-03-29T18:16:58.767Z,0.50
2023-03-29T18:21:57.491Z,0.30
2023-03-29T18:24:27.864Z,0.45
2023-03-29T18:26:58.460Z,0.43
2023-03-29T18:29:26.905Z,0.43
2023-03-29T18:31:55.749Z,0.40
2023-03-29T18:34:24.152Z,0.50
2023-03-29T18:36:53.619Z,0.32
2023-03-29T18:39:21.949Z,0.40
2023-03-29T18:41:49.858Z,0.45
2023-03-29T18:44:22.348Z,0.40
2023-03-29T18:46:50.331Z,0.40
2023-03-29T18:49:19.051Z,0.38
2023-03-29T18:51:47.562Z,0.40
2023-03-29T18:54:15.589Z,0.50
2023-03-29T18:56:43.635Z,0.30
2023-03-29T18:59:11.585Z,0.40
2023-03-29T19:01:41.916Z,0.38
2023-03-29T19:04:12.026Z,0.32
2023-03-29T19:06:42.903Z,0.40
2023-03-29T19:09:11.550Z,0.35
2023-03-29T19:11:39.594Z,0.40
2023-03-29T19:14:09.555Z,0.32
2023-03-29T19:16:41.476Z,0.30
2023-03-29T19:19:13.463Z,0.50
2023-03-29T19:21:42.749Z,0.40
2023-03-29T19:24:12.523Z,0.40
2023-03-29T19:29:12.814Z,0.30
2023-03-29T19:31:40.866Z,0.40
2023-03-29T19:34:11.310Z,0.40
2023-03-29T19:36:39.657Z,0.30
2023-03-29T19:39:08.124Z,0.32
2023-03-29T19:41:36.043Z,0.40
2023-03-29T19:44:05.209Z,0.30
2023-03-29T19:46:33.317Z,0.40
2023-03-29T19:49:03.743Z,0.25
2023-03-29T19:51:34.345Z,0.30
2023-03-29T19:54:02.739Z,0.43
2023-03-29T19:56:30.671Z,0.40
2023-03-29T19:58:58.558Z,0.38
2023-03-29T20:01:27.244Z,0.40
2023-03-29T20:03:55.437Z,0.43
2023-03-29T20:06:23.497Z,0.40
2023-03-29T20:08:53.848Z,0.47
2023-03-29T20:11:24.144Z,0.30
2023-03-29T20:13:52.220Z,0.35
2023-03-29T20:16:24.233Z,0.47
2023-03-29T20:18:53.930Z,0.30
2023-03-29T20:21:21.839Z,0.35
2023-03-29T20:23:49.799Z,0.50
2023-03-29T20:26:18.994Z,0.40
2023-03-29T20:28:46.900Z,0.40
2023-03-29T20:31:14.891Z,0.45
2023-03-29T20:33:44.365Z,0.40
2023-03-29T20:36:13.378Z,0.50
2023-03-29T20:38:41.377Z,0.50
2023-03-29T20:41:10.771Z,0.45
2023-03-29T20:43:41.249Z,0.20
2023-03-29T20:46:22.590Z,0.30
2023-03-29T20:48:54.067Z,0.40
2023-03-29T20:51:22.562Z,0.40
2023-03-29T20:53:50.648Z,0.30
2023-03-29T20:56:18.940Z,0.35
2023-03-29T20:58:48.255Z,0.40
2023-03-29T21:01:16.228Z,0.40
2023-03-29T21:03:44.194Z,0.47
2023-03-29T21:06:13.958Z,0.30
2023-03-29T21:11:12.957Z,0.40
2023-03-29T21:13:40.985Z,0.40
2023-03-29T21:16:11.060Z,0.50
2023-03-29T21:18:40.497Z,0.32
2023-03-29T21:21:08.877Z,0.30
2023-03-29T21:23:37.005Z,0.40
2023-03-29T21:26:07.274Z,0.50
2023-03-29T21:28:35.482Z,0.32
2023-03-29T21:31:06.282Z,0.40
2023-03-29T21:33:37.325Z,0.40
2023-03-29T21:36:06.146Z,0.30
2023-03-29T21:38:34.135Z,0.30
2023-03-29T21:41:02.537Z,0.30
2023-03-29T21:43:30.662Z,0.35
2023-03-29T21:45:59.176Z,0.30
2023-03-29T21:48:27.191Z,0.30
2023-03-29T21:50:56.496Z,0.30
2023-03-29T21:53:25.094Z,0.30
2023-03-29T21:55:53.687Z,0.38
2023-03-29T21:58:21.768Z,0.50
2023-03-29T22:00:50.046Z,0.30
2023-03-29T22:03:18.226Z,0.40
2023-03-29T22:05:59.496Z,0.30
2023-03-29T22:08:27.590Z,0.40
2023-03-29T22:10:57.115Z,0.32
2023-03-29T22:13:26.865Z,0.40
2023-03-29T22:18:30.067Z,0.40
2023-03-29T22:20:59.450Z,0.30
2023-03-29T22:23:27.750Z,0.30
2023-03-29T22:25:55.604Z,0.30
2023-03-29T22:28:23.486Z,0.50
2023-03-29T22:30:51.433Z,0.40
2023-03-29T22:33:19.303Z,0.32
2023-03-29T22:35:47.181Z,0.30
2023-03-29T22:38:16.508Z,0.30
2023-03-29T22:40:44.483Z,0.40
2023-03-29T22:43:12.526Z,0.40
2023-03-29T22:45:40.587Z,0.30
2023-03-29T22:48:08.483Z,0.32
2023-03-29T22:50:36.608Z,0.30
2023-03-29T22:53:04.916Z,0.32
2023-03-29T22:55:34.212Z,0.50
2023-03-29T22:58:02.114Z,0.40
2023-03-29T23:00:31.566Z,0.50
2023-03-29T23:02:59.932Z,0.50
2023-03-29T23:05:27.907Z,0.40
2023-03-29T23:07:56.152Z,0.52
2023-03-29T23:10:28.743Z,0.40
2023-03-29T23:13:08.564Z,0.40
2023-03-29T23:15:38.044Z,0.40
2023-03-29T23:18:06.965Z,0.40
2023-03-29T23:20:34.983Z,0.40
2023-03-29T23:23:02.892Z,0.40
2023-03-29T23:25:31.360Z,0.50
2023-03-29T23:28:00.869Z,0.35
2023-03-29T23:30:30.829Z,0.40
2023-03-29T23:33:00.005Z,0.30
2023-03-29T23:35:27.962Z,0.50
2023-03-29T23:37:55.922Z,0.40
2023-03-29T23:40:24.470Z,0.50
2023-03-29T23:42:52.941Z,0.30
2023-03-29T23:45:22.215Z,0.50
2023-03-29T23:47:50.142Z,0.40
2023-03-29T23:50:18.397Z,0.40
2023-03-29T23:52:47.045Z,0.38
2023-03-29T23:55:16.352Z,0.40
2023-03-29T23:57:44.355Z,0.40
